createdAt,value
2024-03-11T00:04:25.006Z,52.37
2024-03-11T00:09:29.020Z,52.57
2024-03-11T00:14:27.286Z,52.67
2024-03-11T00:19:24.300Z,53.13
2024-03-11T00:24:21.130Z,53.55
2024-03-11T00:29:19.461Z,53.47
2024-03-11T00:34:17.573Z,53.36
2024-03-11T00:39:16.112Z,53.35
2024-03-11T00:44:16.017Z,52.95
2024-03-11T00:49:13.656Z,53.06
2024-03-11T00:54:10.542Z,52.87
2024-03-11T00:59:07.606Z,52.77
2024-03-11T01:04:09.776Z,52.78
2024-03-11T01:09:07.623Z,53.20
2024-03-11T01:14:05.923Z,53.81
2024-03-11T01:19:02.827Z,54.58
2024-03-11T01:23:59.798Z,55.53
2024-03-11T01:28:57.406Z,56.41
2024-03-11T01:33:54.194Z,56.70
2024-03-11T01:38:51.751Z,56.80
2024-03-11T01:43:48.682Z,57.56
2024-03-11T01:48:46.499Z,58.29
2024-03-11T01:53:44.078Z,58.45
2024-03-11T01:58:47.126Z,59.39
2024-03-11T02:03:44.148Z,60.26
2024-03-11T02:08:43.211Z,60.32
2024-03-11T02:13:40.131Z,60.62
2024-03-11T02:18:37.135Z,60.94
2024-03-11T02:23:34.790Z,61.82
2024-03-11T02:28:31.605Z,62.35
2024-03-11T02:33:28.513Z,63.00
2024-03-11T02:38:26.398Z,63.66
2024-03-11T02:43:27.165Z,64.46
2024-03-11T02:48:24.277Z,64.87
2024-03-11T02:53:21.201Z,65.13
2024-03-11T02:58:18.759Z,65.14
2024-03-11T03:03:17.608Z,65.27
2024-03-11T03:08:15.274Z,64.96
2024-03-11T03:13:12.570Z,64.08
2024-03-11T03:18:09.648Z,63.78
2024-03-11T03:23:07.529Z,64.69
2024-03-11T03:28:06.273Z,65.24
2024-03-11T03:33:04.944Z,64.50
2024-03-11T03:38:02.042Z,63.80
2024-03-11T03:42:59.701Z,63.18
2024-03-11T03:47:56.658Z,62.71
2024-03-11T03:52:54.150Z,62.50
2024-03-11T03:57:51.374Z,62.52
2024-03-11T04:02:51.357Z,63.30
2024-03-11T04:07:48.747Z,63.10
2024-03-11T04:12:49.830Z,63.56
2024-03-11T04:17:49.678Z,64.40
2024-03-11T04:22:50.095Z,65.75
2024-03-11T04:27:48.411Z,66.82
2024-03-11T04:32:52.261Z,66.99
2024-03-11T04:37:50.375Z,67.51
2024-03-11T04:42:47.490Z,67.02
2024-03-11T04:47:44.695Z,66.37
2024-03-11T04:52:41.621Z,65.95
2024-03-11T04:57:39.546Z,65.74
2024-03-11T05:02:39.458Z,65.22
2024-03-11T05:07:36.742Z,64.96
2024-03-11T05:12:33.657Z,64.54
2024-03-11T05:17:31.312Z,63.62
2024-03-11T05:22:29.442Z,63.43
2024-03-11T05:27:26.459Z,62.89
2024-03-11T05:32:23.511Z,61.97
2024-03-11T05:37:24.402Z,61.29
2024-03-11T05:42:21.565Z,60.89
2024-03-11T05:47:18.536Z,60.99
2024-03-11T05:52:15.615Z,60.73
2024-03-11T05:57:13.762Z,60.72
2024-03-11T06:02:12.258Z,59.90
2024-03-11T06:07:09.886Z,59.16
2024-03-11T06:12:10.911Z,57.94
2024-03-11T06:17:11.185Z,57.56
2024-03-11T06:22:10.700Z,57.01
2024-03-11T06:27:07.610Z,55.53
2024-03-11T06:32:06.141Z,55.39
2024-03-11T06:37:04.156Z,55.48
2024-03-11T06:42:04.390Z,56.21
2024-03-11T06:47:01.747Z,55.46
2024-03-11T06:51:58.820Z,54.68
2024-03-11T06:56:59.596Z,55.51
2024-03-11T07:01:57.446Z,55.92
2024-03-11T07:06:54.676Z,55.90
2024-03-11T07:11:51.913Z,56.18
2024-03-11T07:16:51.109Z,56.50
2024-03-11T07:21:47.993Z,56.83
2024-03-11T07:26:45.503Z,56.53
2024-03-11T07:31:42.466Z,56.59
2024-03-11T07:36:48.222Z,56.59
2024-03-11T07:41:46.153Z,55.78
2024-03-11T07:46:45.860Z,54.08
2024-03-11T07:51:42.821Z,53.49
2024-03-11T07:56:41.248Z,52.29
2024-03-11T08:01:38.316Z,52.02
2024-03-11T08:06:35.820Z,50.30
2024-03-11T08:11:33.053Z,49.22
2024-03-11T08:16:30.786Z,49.46
2024-03-11T08:21:27.973Z,50.43
2024-03-11T08:26:25.555Z,50.80
2024-03-11T08:31:25.858Z,51.47
2024-03-11T08:36:26.556Z,51.59
2024-03-11T08:41:24.416Z,51.89
2024-03-11T08:46:21.318Z,52.77
2024-03-11T08:51:18.332Z,53.48
2024-03-11T08:56:16.004Z,53.89
2024-03-11T09:01:13.381Z,53.61
2024-03-11T09:06:11.990Z,53.76
2024-03-11T09:11:12.504Z,54.07
2024-03-11T09:16:12.740Z,54.56
2024-03-11T09:21:11.350Z,55.23
2024-03-11T09:26:11.008Z,55.22
2024-03-11T09:31:08.937Z,55.63
2024-03-11T09:36:11.149Z,55.90
2024-03-11T09:41:15.490Z,56.41
2024-03-11T09:46:14.991Z,56.59
2024-03-11T09:51:16.626Z,56.13
2024-03-11T09:56:15.614Z,56.51
2024-03-11T10:01:17.479Z,56.69
2024-03-11T10:06:16.716Z,57.22
2024-03-11T10:11:16.379Z,57.60
2024-03-11T10:16:17.470Z,58.41
2024-03-11T10:21:17.953Z,58.50
2024-03-11T10:26:18.164Z,58.55
2024-03-11T10:31:24.747Z,58.68
2024-03-11T10:36:25.517Z,58.73
2024-03-11T10:41:23.886Z,58.03
2024-03-11T10:46:23.046Z,57.87
2024-03-11T10:51:22.331Z,57.59
2024-03-11T10:56:21.056Z,57.53
2024-03-11T11:01:22.362Z,57.34
2024-03-11T11:06:27.860Z,57.38
2024-03-11T11:11:27.449Z,57.44
2024-03-11T11:16:28.357Z,57.17
2024-03-11T11:21:30.659Z,57.06
2024-03-11T11:26:53.357Z,56.65
2024-03-11T11:32:01.190Z,56.50
2024-03-11T11:37:04.347Z,56.11
2024-03-11T11:42:07.591Z,56.36
2024-03-11T11:47:09.099Z,56.85
2024-03-11T11:52:08.658Z,57.54
2024-03-11T11:57:11.456Z,57.30
2024-03-11T12:02:17.570Z,57.31
2024-03-11T12:07:15.855Z,56.99
2024-03-11T12:12:14.982Z,56.95
2024-03-11T12:17:12.804Z,56.70
2024-03-11T12:22:14.293Z,56.39
2024-03-11T12:27:13.901Z,56.70
2024-03-11T12:32:12.546Z,56.91
2024-03-11T12:37:10.542Z,57.31
2024-03-11T12:42:09.733Z,57.27
2024-03-11T12:47:06.673Z,56.71
2024-03-11T12:52:08.912Z,56.51
2024-03-11T12:57:08.106Z,56.16
2024-03-11T13:02:13.281Z,55.77
2024-03-11T13:07:12.817Z,55.42
2024-03-11T13:12:19.656Z,55.17
2024-03-11T13:17:18.764Z,53.12
2024-03-11T13:22:20.412Z,51.00
2024-03-11T13:27:18.346Z,49.63
2024-03-11T13:32:18.794Z,48.33
2024-03-11T13:37:18.389Z,47.18
2024-03-11T13:42:16.018Z,46.24
2024-03-11T13:47:14.781Z,46.21
2024-03-11T13:52:12.280Z,45.93
2024-03-11T13:57:11.500Z,44.82
2024-03-11T14:02:13.319Z,45.06
2024-03-11T14:07:10.475Z,44.73
2024-03-11T14:12:08.167Z,45.19
2024-03-11T14:17:08.443Z,44.90
2024-03-11T14:22:07.707Z,44.91
2024-03-11T14:27:04.826Z,45.32
2024-03-11T14:32:01.804Z,45.77
2024-03-11T14:36:59.926Z,46.13
2024-03-11T14:41:57.160Z,46.55
2024-03-11T14:46:59.637Z,46.47
2024-03-11T14:51:57.609Z,46.13
2024-03-11T14:56:55.801Z,46.33
2024-03-11T15:01:54.573Z,46.14
2024-03-11T15:06:52.123Z,46.48
2024-03-11T15:11:52.873Z,46.76
2024-03-11T15:16:56.487Z,46.88
2024-03-11T15:21:53.911Z,47.27
2024-03-11T15:26:52.993Z,47.67
2024-03-11T15:32:57.338Z,48.15
2024-03-11T15:37:58.466Z,48.79
2024-03-11T15:42:55.766Z,49.31
2024-03-11T15:47:53.710Z,50.22
2024-03-11T15:52:51.238Z,50.69
2024-03-11T15:57:48.416Z,50.98
2024-03-11T16:02:46.583Z,51.24
2024-03-11T16:07:45.925Z,51.65
2024-03-11T16:12:44.971Z,51.71
2024-03-11T16:17:42.425Z,51.38
2024-03-11T16:22:40.698Z,51.34
2024-03-11T16:27:40.228Z,51.42
2024-03-11T16:32:40.431Z,51.41
2024-03-11T16:37:42.508Z,51.31
2024-03-11T16:42:42.049Z,51.38
2024-03-11T16:47:41.644Z,51.64
2024-03-11T16:52:41.287Z,52.14
2024-03-11T16:57:39.819Z,52.90
2024-03-11T17:02:43.126Z,52.42
2024-03-11T17:07:42.401Z,52.02
2024-03-11T17:12:44.030Z,51.30
2024-03-11T17:17:46.533Z,52.01
2024-03-11T17:22:46.422Z,51.48
2024-03-11T17:27:45.802Z,51.49
2024-03-11T17:32:44.414Z,51.81
2024-03-11T17:37:42.011Z,51.63
2024-03-11T17:42:41.682Z,51.33
2024-03-11T17:47:40.172Z,51.52
2024-03-11T17:52:44.873Z,51.69
2024-03-11T17:57:44.406Z,51.45
2024-03-11T18:02:45.320Z,51.67
2024-03-11T18:07:44.285Z,51.77
2024-03-11T18:12:44.983Z,52.04
2024-03-11T18:17:43.342Z,51.58
2024-03-11T18:22:48.019Z,51.75
2024-03-11T18:28:02.659Z,51.23
2024-03-11T18:33:14.313Z,51.61
2024-03-11T18:38:27.078Z,52.37
2024-03-11T18:43:31.568Z,52.63
2024-03-11T18:48:48.835Z,52.45
2024-03-11T18:53:49.310Z,52.32
2024-03-11T18:59:06.427Z,53.71
2024-03-11T19:04:09.026Z,55.03
2024-03-11T19:09:09.037Z,55.74
2024-03-11T19:14:08.831Z,55.87
2024-03-11T19:19:08.970Z,56.05
2024-03-11T19:24:09.213Z,57.01
2024-03-11T19:29:16.828Z,57.96
2024-03-11T19:34:22.844Z,58.84
2024-03-11T19:39:56.836Z,59.35
2024-03-11T19:45:49.922Z,60.11
2024-03-11T19:51:28.906Z,60.88
2024-03-11T19:57:28.674Z,61.43
2024-03-11T20:02:58.717Z,61.55
2024-03-11T20:08:30.953Z,61.01
2024-03-11T20:14:17.495Z,61.24
2024-03-11T20:20:10.262Z,60.99
2024-03-11T20:26:01.658Z,60.12
2024-03-11T20:31:09.932Z,60.45
2024-03-11T20:36:12.386Z,60.83
2024-03-11T20:41:20.104Z,61.66
2024-03-11T20:46:31.800Z,61.64
2024-03-11T20:51:30.618Z,62.52
2024-03-11T20:56:40.909Z,63.43
2024-03-11T21:01:56.410Z,63.97
2024-03-11T21:07:05.942Z,63.70
2024-03-11T21:12:09.225Z,64.15
2024-03-11T21:17:32.339Z,65.67
2024-03-11T21:22:37.273Z,64.79
2024-03-11T21:27:39.410Z,65.49
2024-03-11T21:32:38.783Z,65.54
2024-03-11T21:37:40.120Z,64.84
2024-03-11T21:42:38.046Z,64.62
2024-03-11T21:47:36.373Z,64.60
2024-03-11T21:52:35.230Z,63.99
2024-03-11T21:57:33.175Z,63.04
2024-03-11T22:02:32.346Z,62.27
2024-03-11T22:07:30.309Z,62.34
2024-03-11T22:12:28.935Z,61.71
2024-03-11T22:17:27.400Z,60.66
2024-03-11T22:22:25.286Z,59.38
2024-03-11T22:27:23.252Z,58.63
2024-03-11T22:32:22.648Z,57.93
2024-03-11T22:37:22.095Z,58.74
2024-03-11T22:42:20.400Z,59.26
2024-03-11T22:47:22.818Z,60.18
2024-03-11T22:52:23.306Z,60.16
2024-03-11T22:57:23.694Z,59.91
2024-03-11T23:02:24.203Z,59.96
2024-03-11T23:07:25.215Z,60.35
2024-03-11T23:12:25.264Z,60.18
2024-03-11T23:17:29.232Z,60.61
2024-03-11T23:22:30.703Z,60.83
2024-03-11T23:27:48.406Z,60.72
2024-03-11T23:32:54.236Z,60.63
2024-03-11T23:38:18.162Z,60.22
2024-03-11T23:44:06.616Z,59.75
2024-03-11T23:49:55.180Z,59.66
2024-03-11T23:55:49.554Z,59.29
